Time;durP1;ratioP1;P1;durP2;ratioP2;P2;SDS_P1;SDS_P2;PMS_P1;PMS_P2;Temp;Humidity;BMP_temperature;BMP_pressure;BME280_temperature;BME280_humidity;BME280_pressure;Samples;Min_cycle;Max_cycle;Signal;HPM_P1;HPM_P2
2023/10/15 00:00:18;;;;;;;0.80;0.80;;;;;;;4.65;92.92;98759.84;5038190;28;20055;-78
2023/10/15 00:02:45;;;;;;;0.80;0.80;;;;;;;4.63;92.90;98764.13;5046003;28;20046;-83
2023/10/15 00:05:14;;;;;;;0.85;0.85;;;;;;;4.53;92.83;98762.72;5051831;28;20045;-78
2023/10/15 00:07:39;;;;;;;0.80;0.80;;;;;;;4.49;92.83;98765.13;5037824;28;20041;-79
2023/10/15 00:10:10;;;;;;;0.70;0.70;;;;;;;4.32;92.62;98774.81;5032869;28;20044;-78
2023/10/15 00:12:37;;;;;;;0.70;0.70;;;;;;;4.52;92.96;98771.50;5044804;28;20083;-80
2023/10/15 00:15:08;;;;;;;0.75;0.75;;;;;;;4.31;92.70;98773.91;5033930;28;20034;-80
2023/10/15 00:17:34;;;;;;;0.70;0.70;;;;;;;4.31;93.24;98770.31;5031355;28;20041;-78
2023/10/15 00:20:00;;;;;;;0.80;0.80;;;;;;;4.21;93.13;98774.19;5032367;28;20033;-79
2023/10/15 00:22:26;;;;;;;0.80;0.80;;;;;;;4.06;92.98;98774.28;5032157;28;20043;-81
2023/10/15 00:24:52;;;;;;;0.80;0.80;;;;;;;4.15;93.15;98772.97;5044203;28;20055;-79
2023/10/15 00:27:17;;;;;;;0.70;0.70;;;;;;;4.42;93.34;98768.28;5041862;28;20044;-79
2023/10/15 00:29:43;;;;;;;0.80;0.80;;;;;;;4.34;93.34;98767.84;5048690;28;20049;-78
2023/10/15 00:32:09;;;;;;;0.80;0.80;;;;;;;4.19;93.10;98764.41;5064011;28;20438;-80
2023/10/15 00:34:35;;;;;;;0.80;0.80;;;;;;;4.15;93.13;98768.59;5047166;28;20033;-79
2023/10/15 00:37:01;;;;;;;0.80;0.80;;;;;;;4.08;93.30;98763.81;5035060;28;20139;-80
2023/10/15 00:39:27;;;;;;;0.90;0.90;;;;;;;4.15;93.13;98765.94;5036703;28;20034;-78
2023/10/15 00:41:53;;;;;;;0.77;0.77;;;;;;;4.10;93.13;98760.41;5045206;28;20036;-82
2023/10/15 00:44:20;;;;;;;0.70;0.70;;;;;;;4.36;93.40;98759.22;5040904;28;20033;-79
2023/10/15 00:46:54;;;;;;;0.63;0.63;;;;;;;4.36;92.89;98753.94;5038626;28;20033;-79
2023/10/15 00:49:27;;;;;;;0.80;0.80;;;;;;;4.25;92.96;98759.44;5029904;28;20033;-78
2023/10/15 00:51:52;;;;;;;0.77;0.77;;;;;;;4.33;93.03;98752.84;5051315;28;20042;-79
2023/10/15 00:54:18;;;;;;;0.80;0.80;;;;;;;4.37;93.52;98750.44;5037444;28;20040;-81
2023/10/15 00:56:47;;;;;;;0.80;0.80;;;;;;;4.48;93.31;98744.81;5036962;28;20084;-78
2023/10/15 00:59:17;;;;;;;0.80;0.80;;;;;;;4.44;93.10;98743.75;5021876;28;20044;-78
2023/10/15 01:04:31;;;;;;;0.70;0.70;;;;;;;4.80;93.18;98738.59;5038041;28;20094;-79
2023/10/15 01:07:13;;;;;;;0.80;0.80;;;;;;;4.82;93.16;98737.81;5036788;28;20091;-78
2023/10/15 01:09:40;;;;;;;0.70;0.70;;;;;;;4.91;92.96;98737.41;5033023;28;20045;-78
2023/10/15 01:12:19;;;;;;;0.70;0.70;;;;;;;5.17;93.19;98732.50;5039184;28;20041;-79
2023/10/15 01:14:45;;;;;;;0.80;0.80;;;;;;;5.02;93.04;98733.56;5031171;28;20112;-78
2023/10/15 01:17:11;;;;;;;0.70;0.70;;;;;;;5.24;92.79;98729.34;5033220;28;20514;-83
2023/10/15 01:19:37;;;;;;;0.70;0.70;;;;;;;5.13;93.06;98726.19;5036740;28;20040;-81
2023/10/15 01:22:10;;;;;;;0.80;0.80;;;;;;;5.14;92.77;98731.53;5028554;28;20521;-78
2023/10/15 01:24:37;;;;;;;0.80;0.80;;;;;;;5.22;93.06;98721.34;5037005;28;20102;-80
2023/10/15 01:27:13;;;;;;;0.80;0.80;;;;;;;5.29;92.77;98726.09;5024139;28;20044;-81
2023/10/15 01:29:41;;;;;;;0.70;0.70;;;;;;;5.39;92.89;98725.72;5031042;28;20223;-79
2023/10/15 01:32:19;;;;;;;0.70;0.70;;;;;;;5.54;92.54;98724.66;5032402;28;20068;-78
2023/10/15 01:34:45;;;;;;;0.70;0.70;;;;;;;5.78;92.63;98727.56;5035644;28;20037;-80
2023/10/15 01:42:40;;;;;;;0.70;0.70;;;;;;;5.78;92.09;98717.91;5036043;28;20045;-80
2023/10/15 01:47:56;;;;;;;0.70;0.70;;;;;;;5.62;91.89;98724.19;5029403;28;20049;-82
2023/10/15 01:50:31;;;;;;;0.70;0.70;;;;;;;5.57;92.13;98719.53;5031230;28;20042;-81
2023/10/15 01:53:04;;;;;;;0.70;0.70;;;;;;;5.49;92.18;98720.88;5041353;28;20040;-80
2023/10/15 01:55:30;;;;;;;0.70;0.70;;;;;;;5.62;92.08;98718.91;5015432;28;20497;-79
2023/10/15 01:58:00;;;;;;;0.70;0.70;;;;;;;5.52;92.35;98721.94;5029044;28;20033;-78
2023/10/15 02:03:04;;;;;;;0.70;0.70;;;;;;;5.69;92.40;98730.69;5030488;28;20038;-80
2023/10/15 02:05:41;;;;;;;0.68;0.68;;;;;;;5.80;92.01;98721.53;5036772;28;20302;-85
2023/10/15 02:08:13;;;;;;;0.68;0.68;;;;;;;5.86;92.23;98720.91;5033653;28;20626;-79
2023/10/15 02:10:46;;;;;;;0.70;0.70;;;;;;;5.81;92.14;98719.78;5028164;28;20109;-85
2023/10/15 02:13:15;;;;;;;0.75;0.75;;;;;;;5.82;92.02;98726.91;5046424;28;20050;-81
2023/10/15 02:15:41;;;;;;;0.60;0.60;;;;;;;5.98;91.87;98715.31;5027347;28;20064;-79
2023/10/15 02:18:09;;;;;;;0.70;0.70;;;;;;;6.07;91.83;98718.38;5027328;28;20049;-81
2023/10/15 02:20:45;;;;;;;0.70;0.70;;;;;;;6.29;91.82;98715.00;5044478;28;20083;-80
2023/10/15 02:23:11;;;;;;;0.80;0.80;;;;;;;6.10;91.76;98714.16;5031384;28;20049;-80
2023/10/15 02:25:56;;;;;;;0.70;0.70;;;;;;;6.20;91.49;98719.88;5022933;28;20038;-83
2023/10/15 02:28:31;;;;;;;0.60;0.60;;;;;;;6.15;91.60;98728.50;5028965;28;20052;-81
2023/10/15 02:33:33;;;;;;;0.70;0.70;;;;;;;6.16;91.51;98725.03;5038119;28;20044;-79
2023/10/15 02:35:59;;;;;;;0.70;0.70;;;;;;;6.23;91.68;98718.28;5028458;28;20049;-82
2023/10/15 02:38:33;;;;;;;0.70;0.70;;;;;;;6.28;91.73;98721.13;5038523;28;20042;-78
2023/10/15 02:41:08;;;;;;;0.70;0.70;;;;;;;6.21;91.68;98717.28;5035497;28;20091;-81
2023/10/15 02:43:48;;;;;;;0.60;0.60;;;;;;;6.22;91.60;98713.78;5028450;28;20071;-79
2023/10/15 02:46:23;;;;;;;0.70;0.70;;;;;;;6.19;91.83;98713.66;5033623;28;20080;-81
2023/10/15 02:48:54;;;;;;;0.70;0.70;;;;;;;6.23;91.97;98707.69;5031800;28;20142;-82
2023/10/15 02:51:24;;;;;;;0.70;0.70;;;;;;;6.29;91.67;98707.94;5032267;28;20029;-80
2023/10/15 02:53:52;;;;;;;0.60;0.60;;;;;;;6.32;91.36;98710.72;5033952;28;20076;-81
2023/10/15 02:56:19;;;;;;;0.70;0.70;;;;;;;6.43;91.17;98705.94;5032992;28;20112;-79
2023/10/15 02:58:47;;;;;;;0.70;0.70;;;;;;;6.36;91.12;98706.47;5045132;28;20545;-81
2023/10/15 03:01:19;;;;;;;0.60;0.60;;;;;;;6.29;91.45;98700.00;5038029;28;20038;-78
2023/10/15 03:03:49;;;;;;;0.70;0.70;;;;;;;6.20;91.41;98704.88;5038779;28;20041;-77
2023/10/15 03:06:19;;;;;;;0.60;0.60;;;;;;;6.17;91.68;98699.44;5046051;28;20047;-77
2023/10/15 03:08:48;;;;;;;0.65;0.65;;;;;;;6.09;91.76;98698.19;5024066;28;20479;-78
2023/10/15 03:11:14;;;;;;;0.70;0.70;;;;;;;6.26;91.92;98697.19;5030717;28;20083;-81
2023/10/15 03:13:55;;;;;;;0.70;0.70;;;;;;;6.31;91.73;98698.31;5037774;28;20365;-79
2023/10/15 03:16:33;;;;;;;0.70;0.70;;;;;;;6.41;91.85;98699.63;5035836;28;20393;-79
2023/10/15 03:19:07;;;;;;;0.70;0.70;;;;;;;6.40;91.37;98696.09;5030516;28;20041;-80
2023/10/15 03:21:38;;;;;;;0.60;0.60;;;;;;;6.51;91.48;98696.56;5053056;28;20051;-78
2023/10/15 03:24:04;;;;;;;0.70;0.70;;;;;;;6.55;91.46;98697.59;5037719;28;20483;-80
2023/10/15 03:26:34;;;;;;;0.60;0.60;;;;;;;6.48;91.51;98706.13;5035653;28;20055;-81
2023/10/15 03:29:13;;;;;;;0.60;0.60;;;;;;;6.59;91.44;98697.81;5033966;28;20099;-80
2023/10/15 03:31:53;;;;;;;0.60;0.60;;;;;;;6.57;91.69;98688.91;5043472;28;20053;-78
2023/10/15 03:34:22;;;;;;;0.60;0.60;;;;;;;6.51;91.47;98706.25;5047695;28;20049;-78
2023/10/15 03:36:50;;;;;;;0.70;0.70;;;;;;;6.61;91.73;98703.16;5040875;28;20063;-78
2023/10/15 03:40:10;;;;;;;0.60;0.60;;;;;;;6.54;91.38;98704.66;5030165;28;20044;-79
2023/10/15 03:42:09;;;;;;;0.60;0.60;;;;;;;6.54;91.76;98703.75;5031635;28;20061;-81
2023/10/15 03:44:47;;;;;;;0.70;0.70;;;;;;;6.51;91.74;98715.09;5032236;28;20115;-80
2023/10/15 03:47:14;;;;;;;0.65;0.65;;;;;;;6.39;91.40;98704.88;5042775;28;20041;-81
2023/10/15 03:49:39;;;;;;;0.60;0.60;;;;;;;6.52;91.88;98710.75;5032291;28;20450;-79
2023/10/15 03:52:09;;;;;;;0.60;0.60;;;;;;;6.57;91.72;98706.56;5026374;28;20068;-78
2023/10/15 03:54:38;;;;;;;0.70;0.70;;;;;;;6.74;91.59;98708.19;5029581;28;20053;-84
2023/10/15 03:57:06;;;;;;;0.70;0.70;;;;;;;6.70;91.63;98703.56;5029878;28;20040;-79
2023/10/15 03:59:41;;;;;;;0.60;0.60;;;;;;;6.67;91.56;98699.06;5029480;28;20037;-77
2023/10/15 04:02:11;;;;;;;0.60;0.60;;;;;;;6.62;91.29;98705.00;5028657;28;20811;-80
2023/10/15 04:04:37;;;;;;;0.60;0.60;;;;;;;6.71;91.63;98701.81;5030035;28;20065;-78
2023/10/15 04:07:10;;;;;;;0.60;0.60;;;;;;;6.84;91.52;98705.06;5034433;28;20121;-83
2023/10/15 04:09:36;;;;;;;0.60;0.60;;;;;;;6.74;91.26;98699.31;5021892;28;20040;-81
2023/10/15 04:12:06;;;;;;;0.60;0.60;;;;;;;6.61;91.62;98693.50;5033307;28;20025;-78
2023/10/15 04:14:35;;;;;;;0.60;0.60;;;;;;;6.57;91.57;98701.25;5030109;28;20455;-79
2023/10/15 04:17:01;;;;;;;0.60;0.60;;;;;;;6.67;91.93;98698.16;5033032;28;20025;-83
2023/10/15 04:19:27;;;;;;;0.60;0.60;;;;;;;6.69;91.87;98697.38;5025959;28;20052;-82
2023/10/15 04:21:59;;;;;;;0.60;0.60;;;;;;;6.73;91.84;98701.06;5031395;28;20419;-79
2023/10/15 04:24:36;;;;;;;0.60;0.60;;;;;;;6.72;91.50;98701.91;5028928;28;20047;-80
2023/10/15 04:27:15;;;;;;;0.60;0.60;;;;;;;6.77;91.54;98704.78;5034370;28;20072;-81
2023/10/15 04:32:28;;;;;;;0.60;0.60;;;;;;;6.91;91.28;98704.53;5029997;28;20538;-80
2023/10/15 04:35:11;;;;;;;0.60;0.60;;;;;;;6.92;91.39;98705.41;5020946;28;20108;-78
2023/10/15 04:37:37;;;;;;;0.70;0.70;;;;;;;6.98;91.46;98710.06;5037356;28;20132;-79
2023/10/15 04:40:11;;;;;;;0.60;0.60;;;;;;;6.94;91.55;98707.28;5034476;28;20128;-78
2023/10/15 04:42:49;;;;;;;0.55;0.55;;;;;;;6.97;91.20;98702.97;5030490;28;20032;-80
2023/10/15 04:45:23;;;;;;;0.60;0.60;;;;;;;6.96;91.15;98706.47;5028839;28;20107;-81
2023/10/15 04:47:53;;;;;;;0.60;0.60;;;;;;;6.90;91.11;98708.03;5029247;28;20049;-80
2023/10/15 04:50:19;;;;;;;0.60;0.60;;;;;;;6.81;91.44;98712.91;5030573;28;20502;-80
2023/10/15 04:52:45;;;;;;;0.60;0.60;;;;;;;6.76;91.16;98714.47;5028323;28;20041;-81
2023/10/15 04:55:13;;;;;;;0.60;0.60;;;;;;;6.82;91.76;98704.13;5030053;28;20044;-80
2023/10/15 04:57:39;;;;;;;0.60;0.60;;;;;;;6.70;92.09;98703.56;5024005;28;20508;-78
2023/10/15 05:00:07;;;;;;;0.70;0.70;;;;;;;6.75;92.20;98709.06;5027605;28;20033;-80
2023/10/15 05:02:35;;;;;;;0.70;0.70;;;;;;;6.91;92.36;98714.22;5026983;28;20570;-80
2023/10/15 05:05:05;;;;;;;0.60;0.60;;;;;;;6.75;91.97;98706.44;5027561;28;20060;-83
2023/10/15 05:07:31;;;;;;;0.65;0.65;;;;;;;6.77;92.42;98702.13;5028015;28;20047;-80
2023/10/15 05:09:58;;;;;;;0.60;0.60;;;;;;;6.83;91.93;98700.63;5023278;28;20508;-84
2023/10/15 05:12:23;;;;;;;0.60;0.60;;;;;;;6.86;92.24;98703.41;5028756;28;20044;-79
2023/10/15 05:14:49;;;;;;;0.68;0.68;;;;;;;6.86;92.34;98695.47;5048202;28;20041;-79
2023/10/15 05:17:17;;;;;;;0.60;0.60;;;;;;;6.87;92.38;98699.91;5027513;28;20037;-80
2023/10/15 05:19:43;;;;;;;0.60;0.60;;;;;;;6.99;92.14;98701.28;5029753;28;20037;-82
2023/10/15 05:22:09;;;;;;;0.60;0.60;;;;;;;6.98;92.13;98699.47;5031242;28;20534;-81
2023/10/15 05:24:35;;;;;;;0.60;0.60;;;;;;;7.04;92.09;98699.72;5016809;28;20087;-78
2023/10/15 05:27:01;;;;;;;0.70;0.70;;;;;;;7.07;91.97;98700.75;5024969;28;20057;-79
2023/10/15 05:29:26;;;;;;;0.60;0.60;;;;;;;7.15;91.36;98703.75;5030606;28;20510;-79
2023/10/15 05:31:53;;;;;;;0.63;0.63;;;;;;;7.04;91.48;98705.03;5028961;28;20056;-78
2023/10/15 05:34:19;;;;;;;0.60;0.60;;;;;;;7.06;91.43;98704.25;5030764;28;20044;-80
2023/10/15 05:36:45;;;;;;;0.70;0.70;;;;;;;7.00;91.15;98706.66;5023208;28;20051;-79
2023/10/15 05:39:15;;;;;;;0.60;0.60;;;;;;;7.07;91.36;98707.81;5030819;28;20037;-82
2023/10/15 05:41:42;;;;;;;0.60;0.60;;;;;;;6.98;91.24;98715.38;5030936;28;20038;-79
2023/10/15 05:44:08;;;;;;;0.70;0.70;;;;;;;6.98;91.57;98713.63;5032363;28;20049;-80
2023/10/15 05:46:33;;;;;;;0.60;0.60;;;;;;;7.00;91.43;98721.69;5027519;28;20383;-79
2023/10/15 05:48:59;;;;;;;0.60;0.60;;;;;;;7.08;91.59;98720.22;5026203;28;20053;-79
2023/10/15 05:51:26;;;;;;;0.60;0.60;;;;;;;7.06;91.00;98722.84;5032469;28;20045;-81
2023/10/15 05:53:51;;;;;;;0.50;0.50;;;;;;;7.00;91.58;98732.28;5025852;28;20089;-80
2023/10/15 05:56:18;;;;;;;0.60;0.60;;;;;;;6.99;91.22;98739.31;5029053;28;20041;-79
2023/10/15 05:58:44;;;;;;;0.70;0.70;;;;;;;7.05;91.58;98747.56;5040287;28;20050;-80
2023/10/15 06:01:09;;;;;;;0.60;0.60;;;;;;;7.12;91.39;98754.03;5025429;28;20053;-80
2023/10/15 06:03:35;;;;;;;0.60;0.60;;;;;;;7.04;91.18;98744.81;5030757;28;20037;-79
2023/10/15 06:06:02;;;;;;;0.60;0.60;;;;;;;7.02;91.95;98736.81;5026966;28;20029;-79
2023/10/15 06:08:28;;;;;;;0.70;0.70;;;;;;;7.04;91.92;98747.47;5026996;28;20076;-80
2023/10/15 06:10:53;;;;;;;0.70;0.70;;;;;;;7.14;91.47;98755.91;5032302;28;20049;-80
2023/10/15 06:13:19;;;;;;;0.60;0.60;;;;;;;7.07;90.98;98755.56;5026478;28;20761;-81
2023/10/15 06:15:45;;;;;;;0.70;0.70;;;;;;;7.06;91.07;98753.75;5025022;28;20041;-79
2023/10/15 06:18:11;;;;;;;0.70;0.70;;;;;;;6.98;91.05;98764.03;5029297;28;20048;-79
2023/10/15 06:20:36;;;;;;;0.60;0.60;;;;;;;7.10;91.20;98768.97;5027612;28;20045;-79
2023/10/15 06:23:04;;;;;;;0.60;0.60;;;;;;;7.15;91.22;98767.44;5033220;28;20037;-80
2023/10/15 06:25:30;;;;;;;0.60;0.60;;;;;;;7.30;91.06;98768.06;5034493;28;20048;-84
2023/10/15 06:27:55;;;;;;;0.60;0.60;;;;;;;7.27;90.51;98767.03;5033530;28;20128;-79
2023/10/15 06:30:21;;;;;;;0.70;0.70;;;;;;;7.23;90.36;98765.97;5036292;28;20442;-81
2023/10/15 06:32:48;;;;;;;0.57;0.57;;;;;;;7.24;90.49;98761.63;5026564;28;20033;-82
2023/10/15 06:35:19;;;;;;;0.60;0.60;;;;;;;7.36;90.41;98763.00;5028135;28;20231;-81
2023/10/15 06:37:48;;;;;;;0.60;0.60;;;;;;;7.47;90.09;98766.13;5024831;28;20072;-80
2023/10/15 06:40:17;;;;;;;0.60;0.60;;;;;;;7.73;89.48;98775.19;5034039;28;20052;-80
2023/10/15 06:42:43;;;;;;;0.60;0.60;;;;;;;7.78;89.33;98770.94;5029856;28;20061;-80
2023/10/15 06:45:10;;;;;;;0.68;0.68;;;;;;;7.75;89.04;98769.91;5026365;28;20041;-78
2023/10/15 06:47:36;;;;;;;0.57;0.57;;;;;;;7.80;88.87;98774.56;5045283;28;20045;-78
2023/10/15 06:50:06;;;;;;;0.63;0.63;;;;;;;7.91;89.01;98775.94;5030727;28;20029;-80
2023/10/15 06:52:37;;;;;;;0.60;0.60;;;;;;;8.11;88.44;98773.16;5030252;28;20095;-78
2023/10/15 06:55:04;;;;;;;0.60;0.60;;;;;;;8.36;88.33;98781.25;5029071;28;20121;-79
2023/10/15 06:57:30;;;;;;;0.60;0.60;;;;;;;8.50;88.07;98779.13;5025182;28;20071;-79
2023/10/15 06:59:55;;;;;;;0.57;0.57;;;;;;;8.52;87.09;98785.41;5030187;28;20029;-79
2023/10/15 07:02:21;;;;;;;0.60;0.60;;;;;;;8.40;87.51;98788.50;5033837;28;20041;-79
2023/10/15 07:04:46;;;;;;;0.50;0.50;;;;;;;8.41;87.13;98797.38;5031336;28;20037;-78
2023/10/15 07:07:13;;;;;;;0.60;0.60;;;;;;;8.29;87.02;98800.47;5034650;28;20045;-80
2023/10/15 07:09:40;;;;;;;0.60;0.60;;;;;;;7.96;85.09;98803.56;5029802;28;20547;-80
2023/10/15 07:12:06;;;;;;;0.60;0.60;;;;;;;8.14;87.01;98797.16;5028461;28;20048;-80
2023/10/15 07:14:32;;;;;;;0.50;0.50;;;;;;;8.38;86.38;98799.91;5050122;28;20057;-82
2023/10/15 07:16:58;;;;;;;0.60;0.60;;;;;;;8.47;85.97;98802.94;5033933;28;20037;-79
2023/10/15 07:19:25;;;;;;;0.60;0.60;;;;;;;8.29;83.93;98797.78;5036615;28;20117;-80
2023/10/15 07:21:52;;;;;;;0.60;0.60;;;;;;;8.48;84.16;98797.69;5004804;28;20384;-79
2023/10/15 07:24:17;;;;;;;0.80;0.80;;;;;;;9.34;82.10;98794.59;5033145;28;20044;-80
2023/10/15 07:26:43;;;;;;;0.60;0.60;;;;;;;10.13;80.43;98793.69;5029372;28;20045;-80
2023/10/15 07:29:08;;;;;;;0.57;0.57;;;;;;;9.88;81.33;98795.56;5029468;28;20120;-82
2023/10/15 07:31:34;;;;;;;0.60;0.60;;;;;;;9.61;82.19;98802.63;5032808;28;20041;-79
2023/10/15 07:34:02;;;;;;;0.60;0.60;;;;;;;9.61;80.99;98799.97;5015507;28;20045;-79
2023/10/15 07:36:28;;;;;;;0.60;0.60;;;;;;;9.41;83.10;98799.28;5032521;28;20049;-80
2023/10/15 07:38:54;;;;;;;0.50;0.50;;;;;;;9.47;84.03;98807.47;5032737;28;20430;-79
2023/10/15 07:41:20;;;;;;;0.50;0.50;;;;;;;9.50;83.15;98804.94;5025097;28;20038;-80
2023/10/15 07:43:45;;;;;;;0.50;0.50;;;;;;;9.47;83.81;98803.06;5029573;28;20034;-80
2023/10/15 07:46:11;;;;;;;0.50;0.50;;;;;;;9.51;83.30;98807.63;5030378;28;20146;-81
2023/10/15 07:48:36;;;;;;;0.50;0.50;;;;;;;9.39;84.17;98809.91;5018799;28;20154;-83
2023/10/15 07:51:02;;;;;;;0.50;0.50;;;;;;;9.34;84.19;98814.16;5036676;28;20033;-80
2023/10/15 07:53:27;;;;;;;0.50;0.50;;;;;;;9.15;84.75;98819.66;5018918;28;20036;-82
2023/10/15 07:55:53;;;;;;;0.50;0.50;;;;;;;9.18;84.60;98814.44;5029332;28;20450;-80
2023/10/15 07:58:21;;;;;;;0.52;0.52;;;;;;;9.15;83.87;98815.25;5028917;28;20041;-83
2023/10/15 08:00:47;;;;;;;0.50;0.50;;;;;;;9.05;84.04;98813.09;5030195;28;20048;-83
2023/10/15 08:03:13;;;;;;;0.60;0.60;;;;;;;9.07;83.96;98816.72;5025907;28;20119;-81
2023/10/15 08:05:39;;;;;;;0.50;0.50;;;;;;;8.81;84.65;98812.19;5030292;28;20483;-81
2023/10/15 08:08:05;;;;;;;0.60;0.60;;;;;;;8.84;83.57;98809.66;5028136;28;20040;-82
2023/10/15 08:10:34;;;;;;;0.60;0.60;;;;;;;9.11;83.10;98823.06;5028954;28;20480;-80
2023/10/15 08:13:01;;;;;;;0.60;0.60;;;;;;;9.12;82.72;98815.13;5026513;28;20095;-81
2023/10/15 08:15:27;;;;;;;0.60;0.60;;;;;;;9.57;81.57;98806.94;5025511;28;20138;-80
2023/10/15 08:17:52;;;;;;;0.60;0.60;;;;;;;10.73;77.52;98796.44;5028281;28;20061;-81
2023/10/15 08:20:18;;;;;;;0.60;0.60;;;;;;;10.93;77.12;98803.28;5031522;28;20048;-80
2023/10/15 08:22:45;;;;;;;0.50;0.50;;;;;;;10.65;77.55;98809.56;5027728;28;20802;-79
2023/10/15 08:25:14;;;;;;;0.60;0.60;;;;;;;11.20;75.64;98796.91;5042518;28;20048;-80
2023/10/15 08:27:44;;;;;;;0.60;0.60;;;;;;;12.42;72.22;98789.34;5028782;28;20046;-80
2023/10/15 08:30:12;;;;;;;0.50;0.50;;;;;;;12.54;69.72;98794.94;5030657;28;20049;-78
2023/10/15 08:32:44;;;;;;;0.60;0.60;;;;;;;12.14;70.73;98798.50;5030335;28;20812;-80
2023/10/15 08:35:10;;;;;;;0.40;0.40;;;;;;;12.51;69.72;98786.88;5028213;28;20057;-79
2023/10/15 08:37:39;;;;;;;0.47;0.47;;;;;;;12.35;69.01;98803.44;5029507;28;20033;-79
2023/10/15 08:40:05;;;;;;;0.40;0.40;;;;;;;12.13;70.09;98801.13;5034201;28;20045;-78
2023/10/15 08:42:42;;;;;;;0.40;0.40;;;;;;;11.83;71.15;98794.13;5028845;28;20034;-79
2023/10/15 08:45:08;;;;;;;0.50;0.50;;;;;;;11.60;71.91;98792.66;5030581;28;20045;-78
2023/10/15 08:47:35;;;;;;;0.67;0.67;;;;;;;12.23;69.15;98795.13;5029853;28;20042;-79
2023/10/15 08:50:02;;;;;;;0.50;0.50;;;;;;;11.78;70.03;98801.09;5028608;28;20029;-80
2023/10/15 08:52:28;;;;;;;0.65;0.65;;;;;;;12.54;66.94;98789.59;5027750;28;20038;-79
2023/10/15 08:54:54;;;;;;;0.40;0.40;;;;;;;11.28;68.90;98790.91;5043641;28;20047;-81
2023/10/15 08:57:21;;;;;;;0.40;0.40;;;;;;;10.76;71.37;98799.22;5030140;28;20386;-79
2023/10/15 08:59:47;;;;;;;0.50;0.50;;;;;;;10.36;72.33;98813.13;5026359;28;20038;-79
2023/10/15 09:02:15;;;;;;;0.50;0.50;;;;;;;10.05;73.22;98813.84;5041475;28;20054;-78
2023/10/15 09:04:44;;;;;;;0.57;0.57;;;;;;;10.15;72.48;98813.28;5047709;28;20112;-80
2023/10/15 09:07:12;;;;;;;0.80;0.80;;;;;;;11.56;69.12;98813.03;5026448;28;20044;-80
2023/10/15 09:09:38;;;;;;;0.50;0.50;;;;;;;12.71;64.65;98802.47;5026611;28;20836;-79
2023/10/15 09:12:06;;;;;;;0.70;0.70;;;;;;;12.26;66.91;98797.84;5030729;28;20038;-80
2023/10/15 09:14:42;;;;;;;0.50;0.50;;;;;;;12.14;66.17;98797.59;5029439;28;20426;-81
2023/10/15 09:17:10;;;;;;;0.80;0.80;;;;;;;13.44;62.42;98803.97;5025562;28;20644;-82
2023/10/15 09:19:38;;;;;;;0.70;0.70;;;;;;;14.85;58.51;98798.22;5023476;28;20041;-79
2023/10/15 09:22:14;;;;;;;0.40;0.40;;;;;;;14.05;57.16;98806.84;5020791;28;20039;-83
2023/10/15 09:24:40;;;;;;;0.40;0.40;;;;;;;13.90;57.15;98802.13;5039126;28;20140;-82
2023/10/15 09:27:05;;;;;;;0.50;0.50;;;;;;;14.46;55.76;98794.06;5043483;28;20475;-82
2023/10/15 09:29:32;;;;;;;0.50;0.50;;;;;;;15.88;52.04;98803.00;5026853;28;20044;-81
2023/10/15 09:32:02;;;;;;;0.60;0.60;;;;;;;15.44;51.97;98800.75;5039290;28;20034;-82
2023/10/15 09:34:29;;;;;;;0.40;0.40;;;;;;;14.54;54.34;98791.53;5020478;28;20041;-77
2023/10/15 09:36:54;;;;;;;0.40;0.40;;;;;;;13.71;56.39;98816.09;5024189;28;20045;-81
2023/10/15 09:39:20;;;;;;;0.40;0.40;;;;;;;12.65;61.10;98811.28;5022009;28;20056;-80
2023/10/15 09:41:45;;;;;;;0.40;0.40;;;;;;;12.69;61.39;98817.56;5020302;28;20052;-81
2023/10/15 09:44:14;;;;;;;0.40;0.40;;;;;;;12.57;59.76;98813.75;5014657;28;20037;-80
2023/10/15 09:46:43;;;;;;;0.40;0.40;;;;;;;12.15;60.34;98821.69;5021289;28;20128;-81
2023/10/15 09:49:12;;;;;;;0.50;0.50;;;;;;;11.89;62.45;98825.50;5032458;28;20037;-79
2023/10/15 09:51:42;;;;;;;0.40;0.40;;;;;;;11.90;63.25;98830.88;5022578;28;20037;-79
2023/10/15 09:54:14;;;;;;;0.50;0.50;;;;;;;11.42;64.24;98831.34;5018756;28;20495;-78
2023/10/15 09:56:45;;;;;;;0.40;0.40;;;;;;;11.23;64.99;98834.38;5008166;28;28449;-78
2023/10/15 09:59:11;;;;;;;0.43;0.43;;;;;;;10.89;64.22;98835.19;5006830;28;20046;-79
2023/10/15 10:01:40;;;;;;;0.40;0.40;;;;;;;10.66;63.96;98829.16;5005994;28;20041;-80
2023/10/15 10:04:40;;;;;;;0.50;0.50;;;;;;;10.65;65.46;98833.59;4997068;28;20045;-79
2023/10/15 10:07:15;;;;;;;0.60;0.60;;;;;;;10.69;64.85;98843.50;5022574;28;20060;-81
2023/10/15 10:10:27;;;;;;;0.60;0.60;;;;;;;10.78;62.86;98838.44;4979612;28;20067;-81
2023/10/15 10:13:04;;;;;;;0.57;0.57;;;;;;;10.77;62.20;98831.28;5001739;28;20496;-82
2023/10/15 10:15:54;;;;;;;0.70;0.70;;;;;;;11.98;60.77;98829.31;5007495;28;20133;-81
2023/10/15 10:18:23;;;;;;;0.60;0.60;;;;;;;12.51;59.23;98812.72;5005355;28;20045;-81
2023/10/15 10:20:49;;;;;;;0.70;0.70;;;;;;;13.19;55.84;98815.06;5001124;28;20042;-81
2023/10/15 10:23:17;;;;;;;0.70;0.70;;;;;;;15.18;50.45;98799.53;5003963;28;20549;-82
2023/10/15 10:25:42;;;;;;;;;;;;;;;15.99;48.44;98795.91;4999793;28;20164;-82
2023/10/15 10:28:16;;;;;;;0.50;0.50;;;;;;;15.85;48.27;98802.97;5002580;28;20012;-80
2023/10/15 10:30:57;;;;;;;0.43;0.43;;;;;;;15.85;45.05;98794.88;5005907;28;20814;-80
2023/10/15 10:33:39;;;;;;;0.40;0.40;;;;;;;16.24;44.78;98786.28;5002082;28;20206;-81
2023/10/15 10:36:12;;;;;;;0.50;0.50;;;;;;;17.08;42.81;98786.75;5006606;28;20120;-79
2023/10/15 10:38:41;;;;;;;0.40;0.40;;;;;;;17.14;41.92;98789.47;5019526;28;20037;-81
2023/10/15 10:41:14;;;;;;;0.30;0.30;;;;;;;18.31;40.05;98784.31;5000907;28;20041;-81
2023/10/15 10:43:45;;;;;;;0.30;0.30;;;;;;;15.92;42.92;98787.78;5003564;28;20408;-84
2023/10/15 10:46:23;;;;;;;0.30;0.30;;;;;;;14.25;45.91;98801.81;5001970;28;20426;-80
2023/10/15 10:49:06;;;;;;;0.40;0.40;;;;;;;12.45;50.80;98802.75;5004193;28;20450;-82
2023/10/15 10:51:33;;;;;;;0.40;0.40;;;;;;;12.24;52.74;98810.31;5011889;28;20116;-81
2023/10/15 10:53:59;;;;;;;0.40;0.40;;;;;;;11.73;53.90;98813.47;5004774;28;20120;-80
2023/10/15 10:56:44;;;;;;;0.40;0.40;;;;;;;11.27;55.32;98815.81;5015442;28;20129;-83
2023/10/15 10:59:14;;;;;;;0.50;0.50;;;;;;;11.17;56.23;98812.84;4996851;28;20046;-81
2023/10/15 11:01:47;;;;;;;0.60;0.60;;;;;;;11.35;55.19;98813.34;5003804;28;20037;-81
2023/10/15 11:04:16;;;;;;;0.77;0.77;;;;;;;12.21;54.83;98807.56;5019150;28;20045;-81
2023/10/15 11:06:45;;;;;;;0.60;0.60;;;;;;;12.83;53.70;98800.03;5008054;28;20037;-79
2023/10/15 11:09:15;;;;;;;0.70;0.70;;;;;;;14.10;51.09;98795.31;5001223;28;20053;-82
2023/10/15 11:11:55;;;;;;;0.70;0.70;;;;;;;16.23;44.63;98780.84;5006457;28;20132;-82
2023/10/15 11:14:23;;;;;;;0.60;0.60;;;;;;;18.46;40.69;98784.28;5005952;28;20552;-86
2023/10/15 11:16:50;;;;;;;0.60;0.60;;;;;;;19.46;38.00;98774.94;5004417;28;20789;-86
2023/10/15 11:19:16;;;;;;;0.50;0.50;;;;;;;19.76;37.92;98777.50;5011047;28;20041;-83
2023/10/15 11:21:42;;;;;;;0.30;0.30;;;;;;;18.29;39.36;98772.59;5003024;28;20033;-82
2023/10/15 11:24:12;;;;;;;0.30;0.30;;;;;;;15.18;45.76;98783.41;5010333;28;20817;-80
2023/10/15 11:26:41;;;;;;;0.30;0.30;;;;;;;13.75;50.14;98809.88;5011680;28;20044;-81
2023/10/15 11:29:16;;;;;;;0.30;0.30;;;;;;;12.36;47.29;98824.00;5009674;28;20056;-82
2023/10/15 11:31:44;;;;;;;0.40;0.40;;;;;;;11.35;49.28;98829.38;5016035;28;20037;-82
2023/10/15 11:34:12;;;;;;;0.50;0.50;;;;;;;10.78;53.08;98841.13;5011198;28;20041;-79
2023/10/15 11:36:39;;;;;;;0.50;0.50;;;;;;;10.21;55.85;98845.50;5010695;28;20101;-79
2023/10/15 11:39:08;;;;;;;0.60;0.60;;;;;;;9.62;61.27;98860.38;5007486;28;20065;-79
2023/10/15 11:41:38;;;;;;;0.55;0.55;;;;;;;8.96;61.82;98853.59;5005966;28;20037;-81
2023/10/15 11:44:04;;;;;;;0.60;0.60;;;;;;;8.63;63.60;98847.91;5015112;28;20045;-83
2023/10/15 11:46:30;;;;;;;0.70;0.70;;;;;;;8.60;64.72;98839.78;5006872;28;20760;-79
2023/10/15 11:49:01;;;;;;;0.70;0.70;;;;;;;8.56;64.81;98842.28;5001392;28;20038;-81
2023/10/15 11:51:28;;;;;;;0.60;0.60;;;;;;;8.76;66.17;98838.63;5010252;28;20463;-79
2023/10/15 11:53:55;;;;;;;;;;;;;;;9.17;64.46;98840.16;5004614;28;20429;-79
2023/10/15 11:56:26;;;;;;;1.00;1.00;;;;;;;12.21;57.47;98823.59;5009102;28;19991;-79
2023/10/15 11:58:51;;;;;;;0.90;0.90;;;;;;;15.18;48.04;98804.91;5014736;28;20045;-80
2023/10/15 12:01:17;;;;;;;0.50;0.50;;;;;;;12.79;53.62;98819.56;5008206;28;20159;-80
2023/10/15 12:03:43;;;;;;;0.80;0.80;;;;;;;14.86;48.94;98818.84;5010492;28;20033;-80
2023/10/15 12:06:09;;;;;;;0.70;0.70;;;;;;;16.91;43.65;98812.72;5008743;28;20045;-80